Alamo, North Dakota
Current Conditions -  °F | °C
As of 12:15 AM on Friday 31 Oct 2014 (Local Time) from KD50 Reporting Station
Clear Clear  
Wind Chill:   Ceiling: Unl
Heat Index: 18°   Visibility: 10mi
Dew Point: 18°   Wind: 8mph
Humidity: 100%   Direction: 130°SE
Pressure: 30.51"   Gusts: NA
Location:  48.58°N, 103.47°W
Report Text: KD50 310515Z AUTO 13007KT 10SM CLR M08/M08 A3051 RMK AO2
Loading
Personal Weather Stations






























Interactive Weather Map
Tropical Storm Tracking
New forecast layout! Learn more

10-Day Weather Forecast

Advertisements
Track Severe Weather on mobile